Terminal Aerodrome Forecast
Issued by NWS Twin Cities, MN

Home | Current Version | Previous Version | Graphics & Text | Print | Product List | Glossary On
Versions: 1 2 3 4 5 6 7 8 9 10 11 12 13 14
429
FTUS43 KMPX 171120
TAFEAU
TAF
KEAU 171120Z 1712/1812 27008KT P6SM SCT025
     FM171600 29009KT P6SM SKC
     FM180100 00000KT P6SM FEW150
     FM180700 00000KT P6SM BKN120=

USA.gov is the U.S. government's official web portal to all federal, state and local government web resources and services.